Time;durP1;ratioP1;P1;durP2;ratioP2;P2;SDS_P1;SDS_P2;PMS_P1;PMS_P2;Temp;Humidity;BMP_temperature;BMP_pressure;BME280_temperature;BME280_humidity;BME280_pressure;Samples;Min_cycle;Max_cycle;Signal;HPM_P1;HPM_P2
2022/01/07 00:01:18;;;;;;;11.70;5.07;;;;;;;3.17;75.48;101425.31;5097319;28;20127;-69
2022/01/07 00:03:45;;;;;;;13.20;4.40;;;;;;;3.19;75.26;101428.81;5093515;28;20047;-71
2022/01/07 00:06:11;;;;;;;11.27;5.22;;;;;;;3.18;75.31;101427.06;5097492;28;20055;-70
2022/01/07 00:08:38;;;;;;;13.73;5.22;;;;;;;3.19;75.20;101415.78;5095503;28;20048;-72
2022/01/07 00:11:05;;;;;;;13.75;5.75;;;;;;;3.19;75.12;101411.44;5097702;28;20075;-70
2022/01/07 00:13:32;;;;;;;13.45;4.47;;;;;;;3.20;75.26;101407.13;5095365;28;20047;-70
2022/01/07 00:15:59;;;;;;;11.52;4.90;;;;;;;3.20;75.02;101407.13;5091054;28;20049;-72
2022/01/07 00:18:26;;;;;;;10.45;4.53;;;;;;;3.19;75.20;101390.59;5095746;28;20052;-73
2022/01/07 00:20:54;;;;;;;11.55;5.47;;;;;;;3.21;75.20;101399.31;5097311;28;20052;-72
2022/01/07 00:23:21;;;;;;;13.10;4.70;;;;;;;3.22;75.06;101392.34;5096326;28;20045;-71
2022/01/07 00:25:49;;;;;;;12.18;4.65;;;;;;;3.24;75.05;101388.91;5093208;28;20087;-72
2022/01/07 00:28:18;;;;;;;13.93;5.10;;;;;;;3.26;74.91;101383.69;5096401;28;20449;-72
2022/01/07 00:30:45;;;;;;;13.88;4.88;;;;;;;3.28;74.86;101379.38;5112065;28;20045;-70
2022/01/07 00:33:13;;;;;;;18.27;5.70;;;;;;;3.30;74.85;101376.78;5094469;28;20044;-72
2022/01/07 00:35:40;;;;;;;12.35;4.93;;;;;;;3.31;74.65;101370.72;5096595;28;20045;-73
2022/01/07 00:38:07;;;;;;;12.27;5.13;;;;;;;3.32;74.33;101362.03;5089803;28;20048;-72
2022/01/07 00:40:34;;;;;;;13.13;5.30;;;;;;;3.32;74.49;101370.72;5094485;28;20058;-70
2022/01/07 00:43:01;;;;;;;11.25;5.55;;;;;;;3.32;74.64;101368.09;5097194;28;20048;-69
2022/01/07 00:45:28;;;;;;;13.05;5.22;;;;;;;3.33;75.02;101362.03;5096601;28;20052;-70
2022/01/07 00:47:56;;;;;;;13.55;5.18;;;;;;;3.35;74.66;101362.94;5096733;28;20044;-72
2022/01/07 00:50:27;;;;;;;12.63;4.88;;;;;;;3.37;74.77;101358.59;5089914;28;20095;-71
2022/01/07 00:52:54;;;;;;;9.80;4.78;;;;;;;3.38;74.48;101356.84;5091020;28;20143;-74
2022/01/07 00:55:21;;;;;;;9.43;5.20;;;;;;;3.37;74.43;101355.09;5083428;28;20045;-73
2022/01/07 00:57:48;;;;;;;10.43;5.10;;;;;;;3.34;74.61;101350.75;5093437;28;20056;-71
2022/01/07 01:00:20;;;;;;;14.63;5.40;;;;;;;3.33;74.97;101345.53;5094852;28;20132;-70
2022/01/07 01:02:48;;;;;;;14.50;5.00;;;;;;;3.33;75.00;101341.19;5096880;28;20052;-71
2022/01/07 01:05:16;;;;;;;12.85;5.05;;;;;;;3.30;75.10;101330.75;5087430;28;20123;-72
2022/01/07 01:07:43;;;;;;;11.52;5.00;;;;;;;3.29;75.34;101338.53;5096417;28;20053;-71
2022/01/07 01:10:13;;;;;;;11.32;4.68;;;;;;;3.28;75.50;101337.69;5091119;28;20056;-68
2022/01/07 01:12:44;;;;;;;10.75;4.53;;;;;;;3.25;75.70;101340.25;5086116;28;20514;-72
2022/01/07 01:15:16;;;;;;;10.25;4.80;;;;;;;3.24;75.73;101334.19;5092381;28;20059;-69
2022/01/07 01:17:43;;;;;;;9.93;4.88;;;;;;;3.22;75.96;101330.69;5090022;28;20473;-69
2022/01/07 01:20:11;;;;;;;15.02;5.15;;;;;;;3.22;75.72;101325.47;5091908;28;20063;-71
2022/01/07 01:22:39;;;;;;;13.13;4.97;;;;;;;3.20;75.81;101334.16;5094725;28;20045;-66
2022/01/07 01:25:07;;;;;;;10.43;4.72;;;;;;;3.19;76.04;101319.38;5090102;28;20060;-70
2022/01/07 01:27:34;;;;;;;13.02;4.47;;;;;;;3.16;76.17;101312.38;5090344;28;20049;-70
2022/01/07 01:30:07;;;;;;;13.50;5.03;;;;;;;3.17;76.18;101321.09;5092622;28;20052;-71
2022/01/07 01:32:36;;;;;;;10.55;4.75;;;;;;;3.14;76.27;101306.31;5086865;28;20383;-71
2022/01/07 01:35:07;;;;;;;10.60;4.35;;;;;;;3.13;76.28;101304.56;5093239;28;20049;-70
2022/01/07 01:37:33;;;;;;;12.55;4.68;;;;;;;3.10;76.64;101302.78;5095512;28;20052;-71
2022/01/07 01:40:00;;;;;;;8.60;4.50;;;;;;;3.08;76.85;101288.91;5084434;28;20033;-71
2022/01/07 01:42:27;;;;;;;11.23;4.32;;;;;;;3.08;76.87;101277.59;5095471;28;20987;-73
2022/01/07 01:44:54;;;;;;;10.30;4.88;;;;;;;3.07;76.93;101270.63;5096011;28;20131;-69
2022/01/07 01:47:21;;;;;;;10.38;4.90;;;;;;;3.07;77.01;101265.41;5095463;28;20045;-70
2022/01/07 01:49:48;;;;;;;10.98;5.22;;;;;;;3.07;77.11;101270.63;5096250;28;20446;-69
2022/01/07 01:52:14;;;;;;;11.95;5.15;;;;;;;3.05;77.27;101265.41;5087198;28;20495;-70
2022/01/07 01:54:45;;;;;;;9.25;4.32;;;;;;;3.05;77.36;101261.94;5095940;28;20045;-72
2022/01/07 01:57:13;;;;;;;11.07;4.55;;;;;;;3.05;77.24;101261.94;5095471;28;20076;-71
2022/01/07 01:59:40;;;;;;;11.00;4.85;;;;;;;3.04;77.25;101255.84;5094257;28;20051;-71
2022/01/07 02:02:07;;;;;;;11.57;4.88;;;;;;;3.05;77.46;101255.00;5093333;28;20048;-72
2022/01/07 02:04:38;;;;;;;10.88;4.30;;;;;;;3.04;77.32;101245.44;5094370;28;20052;-71
2022/01/07 02:07:08;;;;;;;11.77;4.32;;;;;;;3.05;77.57;101248.94;5095421;28;20044;-70
2022/01/07 02:09:36;;;;;;;9.15;3.92;;;;;;;3.05;77.62;101239.38;5095108;28;20056;-67
2022/01/07 02:12:07;;;;;;;9.23;4.30;;;;;;;3.06;77.56;101233.28;5094550;28;20099;-68
2022/01/07 02:14:36;;;;;;;8.57;4.68;;;;;;;3.07;77.75;101226.34;5089324;28;20120;-70
2022/01/07 02:17:09;;;;;;;7.07;4.15;;;;;;;3.08;77.50;101218.56;5083101;28;20040;-72
2022/01/07 02:19:39;;;;;;;9.05;4.53;;;;;;;3.09;77.41;101219.41;5095763;28;20045;-70
2022/01/07 02:22:06;;;;;;;9.55;4.05;;;;;;;3.10;77.48;101213.34;5095266;28;20045;-72
2022/01/07 02:24:35;;;;;;;9.88;4.18;;;;;;;3.09;77.29;101194.25;5095733;28;20044;-70
2022/01/07 02:27:02;;;;;;;8.55;4.55;;;;;;;3.11;77.46;101200.31;5090379;28;20053;-69
2022/01/07 02:29:29;;;;;;;7.25;3.78;;;;;;;3.13;77.44;101207.28;5094945;28;20139;-71
2022/01/07 02:31:56;;;;;;;12.45;4.45;;;;;;;3.13;77.55;101186.44;5094439;28;20052;-72
2022/01/07 02:34:23;;;;;;;10.55;4.38;;;;;;;3.12;77.35;101182.97;5075794;28;20055;-70
2022/01/07 02:36:50;;;;;;;10.68;4.03;;;;;;;3.13;77.34;101186.44;5086571;28;20045;-70
2022/01/07 02:39:17;;;;;;;10.52;3.67;;;;;;;3.13;77.15;101182.09;5098038;28;20044;-71
2022/01/07 02:41:43;;;;;;;8.32;3.83;;;;;;;3.13;77.24;101183.81;5092335;28;20041;-70
2022/01/07 02:44:10;;;;;;;9.57;3.72;;;;;;;3.11;77.09;101184.69;5098507;28;20121;-72
2022/01/07 02:46:38;;;;;;;8.43;3.85;;;;;;;3.11;77.23;101187.28;5098304;28;20477;-70
2022/01/07 02:49:13;;;;;;;6.63;3.97;;;;;;;3.11;77.35;101186.44;5097109;28;20087;-69
2022/01/07 02:51:41;;;;;;;11.68;3.42;;;;;;;3.10;77.29;101177.72;5098542;28;20048;-68
2022/01/07 02:54:08;;;;;;;11.35;3.63;;;;;;;3.10;77.33;101177.72;5083146;28;20053;-70
2022/01/07 02:56:38;;;;;;;9.13;3.58;;;;;;;3.13;77.34;101176.00;5088111;28;20053;-70
2022/01/07 02:59:07;;;;;;;13.02;3.85;;;;;;;3.16;77.31;101173.44;5098685;28;20123;-73
2022/01/07 03:01:37;;;;;;;8.23;4.05;;;;;;;3.16;76.92;101174.28;5096136;28;20044;-73
2022/01/07 03:04:06;;;;;;;7.82;3.28;;;;;;;3.14;77.02;101157.81;5087573;28;20051;-70
2022/01/07 03:06:34;;;;;;;10.65;3.60;;;;;;;3.15;76.97;101172.56;5090973;28;20060;-69
2022/01/07 03:09:01;;;;;;;10.95;3.83;;;;;;;3.16;77.09;101165.63;5098664;28;20052;-72
2022/01/07 03:11:28;;;;;;;8.00;3.60;;;;;;;3.15;77.03;101164.75;5097621;28;20045;-70
2022/01/07 03:13:55;;;;;;;7.35;3.30;;;;;;;3.18;76.86;101163.91;5095179;28;20053;-73
2022/01/07 03:16:22;;;;;;;7.93;3.17;;;;;;;3.17;76.61;101156.94;5098147;28;20044;-75
2022/01/07 03:18:50;;;;;;;9.60;3.17;;;;;;;3.18;76.59;101161.28;5090672;28;20044;-73
2022/01/07 03:21:17;;;;;;;8.75;3.05;;;;;;;3.18;76.82;101156.06;5098278;28;20047;-72
2022/01/07 03:23:45;;;;;;;7.00;3.65;;;;;;;3.20;76.87;101146.53;5098175;28;20052;-71
2022/01/07 03:26:12;;;;;;;6.50;3.00;;;;;;;3.20;76.91;101146.53;5086878;28;20490;-72
2022/01/07 03:28:39;;;;;;;7.93;3.20;;;;;;;3.21;76.80;101137.84;5097130;28;20049;-72
2022/01/07 03:31:07;;;;;;;8.18;3.05;;;;;;;3.19;76.82;101135.22;5093890;28;20045;-72
2022/01/07 03:33:34;;;;;;;5.43;2.60;;;;;;;3.20;76.90;101130.91;5096534;28;20060;-70
2022/01/07 03:36:00;;;;;;;10.05;2.97;;;;;;;3.21;77.22;101127.41;5097423;28;20055;-70
2022/01/07 03:38:28;;;;;;;7.35;2.63;;;;;;;3.20;77.11;101125.69;5095608;28;20127;-70
2022/01/07 03:40:55;;;;;;;9.43;3.15;;;;;;;3.22;77.09;101126.53;5093271;28;20052;-71
2022/01/07 03:43:22;;;;;;;8.27;3.80;;;;;;;3.20;76.92;101123.94;5092096;28;20483;-68
2022/01/07 03:45:49;;;;;;;8.38;2.88;;;;;;;3.20;76.94;101115.28;5090244;28;20053;-68
2022/01/07 03:48:15;;;;;;;7.95;3.10;;;;;;;3.19;77.07;101122.19;5090555;28;20462;-70
2022/01/07 03:50:42;;;;;;;7.40;2.80;;;;;;;3.19;77.12;101127.41;5097670;28;20052;-70
2022/01/07 03:53:09;;;;;;;11.00;2.92;;;;;;;3.16;77.10;101119.56;5096912;28;20041;-69
2022/01/07 03:55:35;;;;;;;7.97;3.05;;;;;;;3.10;77.15;101119.56;5097271;28;20060;-71
2022/01/07 03:58:03;;;;;;;9.68;3.38;;;;;;;3.02;77.62;101119.50;5094309;28;20095;-70
2022/01/07 04:00:39;;;;;;;6.30;2.92;;;;;;;2.97;77.73;101107.31;5096101;28;20052;-69
2022/01/07 04:03:11;;;;;;;7.55;2.75;;;;;;;2.91;78.03;101109.03;5090842;28;20052;-69
2022/01/07 04:05:38;;;;;;;7.97;3.03;;;;;;;2.87;78.26;101098.59;5096076;28;20144;-65
2022/01/07 04:08:07;;;;;;;7.28;2.88;;;;;;;2.85;78.38;101093.34;5095841;28;20049;-68
2022/01/07 04:10:34;;;;;;;7.88;2.92;;;;;;;2.84;78.58;101091.66;5096226;28;20044;-68
2022/01/07 04:13:03;;;;;;;7.30;2.88;;;;;;;2.83;78.67;101087.31;5090360;28;20052;-70
2022/01/07 04:15:30;;;;;;;9.02;3.70;;;;;;;2.82;78.85;101076.84;5091928;28;20047;-68
2022/01/07 04:17:57;;;;;;;7.53;3.08;;;;;;;2.83;78.99;101086.41;5092230;28;20783;-70
2022/01/07 04:20:30;;;;;;;11.02;2.70;;;;;;;2.80;79.08;101082.91;5089566;28;20049;-68
2022/01/07 04:22:58;;;;;;;10.02;3.38;;;;;;;2.81;79.13;101086.41;5095332;28;20123;-66
2022/01/07 04:25:26;;;;;;;7.95;3.05;;;;;;;2.83;79.31;101071.69;5089521;28;20040;-67
2022/01/07 04:27:59;;;;;;;7.35;3.10;;;;;;;2.85;79.37;101079.47;5089182;28;20501;-69
2022/01/07 04:30:30;;;;;;;6.60;3.38;;;;;;;2.86;79.43;101084.69;5091074;28;20049;-70
2022/01/07 04:33:01;;;;;;;8.85;2.80;;;;;;;2.89;79.70;101076.91;5094341;28;20185;-65
2022/01/07 04:35:30;;;;;;;7.10;3.20;;;;;;;2.91;79.80;101075.19;5091200;28;20048;-69
2022/01/07 04:37:57;;;;;;;6.18;2.90;;;;;;;2.92;79.65;101078.66;5093418;28;20141;-69
2022/01/07 04:40:24;;;;;;;11.02;3.45;;;;;;;2.93;79.68;101069.97;5094190;28;20049;-71
2022/01/07 04:42:51;;;;;;;6.30;2.88;;;;;;;2.93;79.67;101076.06;5092802;28;20063;-70
2022/01/07 04:45:18;;;;;;;9.38;3.45;;;;;;;2.94;79.89;101066.50;5095656;28;20095;-67
2022/01/07 04:47:45;;;;;;;11.73;2.95;;;;;;;2.93;79.93;101067.38;5095493;28;20044;-71
2022/01/07 04:50:19;;;;;;;6.60;3.03;;;;;;;2.93;79.94;101065.66;5095736;28;20048;-68
2022/01/07 04:52:47;;;;;;;8.00;2.80;;;;;;;2.95;80.19;101076.06;5095730;28;20048;-69
2022/01/07 04:55:24;;;;;;;4.95;2.90;;;;;;;2.97;80.02;101079.56;5096353;28;20414;-71
2022/01/07 04:57:52;;;;;;;6.53;3.03;;;;;;;2.97;80.15;101076.94;5091991;28;20108;-72
2022/01/07 05:00:22;;;;;;;5.10;2.50;;;;;;;2.98;80.11;101070.88;5089074;28;20048;-71
2022/01/07 05:02:50;;;;;;;6.70;2.55;;;;;;;2.98;80.23;101070.00;5094057;28;20118;-69
2022/01/07 05:05:17;;;;;;;6.15;2.83;;;;;;;2.96;80.12;101062.19;5095013;28;20049;-70
2022/01/07 05:07:45;;;;;;;8.52;2.83;;;;;;;2.96;80.28;101064.78;5095027;28;20110;-71
2022/01/07 05:10:14;;;;;;;9.48;2.85;;;;;;;2.98;80.24;101062.19;5095234;28;20044;-70
2022/01/07 05:12:42;;;;;;;9.35;2.92;;;;;;;2.98;80.37;101052.66;5091634;28;20051;-73
2022/01/07 05:15:13;;;;;;;5.18;2.65;;;;;;;3.01;80.63;101049.19;5096601;28;20041;-71
2022/01/07 05:17:44;;;;;;;5.25;2.85;;;;;;;3.01;80.60;101038.75;5089953;28;21221;-70
2022/01/07 05:20:14;;;;;;;7.70;3.20;;;;;;;3.02;80.76;101040.50;5090545;28;20482;-67
2022/01/07 05:22:41;;;;;;;6.20;2.80;;;;;;;3.02;80.63;101038.75;5090590;28;20106;-67
2022/01/07 05:25:08;;;;;;;8.13;2.83;;;;;;;3.02;80.74;101041.34;5092362;28;20414;-69
2022/01/07 05:27:35;;;;;;;6.95;3.20;;;;;;;3.04;80.79;101041.38;5093575;28;20059;-66
2022/01/07 05:30:06;;;;;;;9.18;2.83;;;;;;;3.04;80.79;101038.78;5095531;28;20052;-68
2022/01/07 05:32:33;;;;;;;5.30;2.88;;;;;;;3.03;80.79;101034.44;5092793;28;20144;-70
2022/01/07 05:35:00;;;;;;;5.80;2.95;;;;;;;3.05;81.06;101036.16;5092237;28;20047;-68
2022/01/07 05:37:26;;;;;;;6.05;3.08;;;;;;;3.04;81.03;101029.22;5083540;28;20131;-67
2022/01/07 05:39:55;;;;;;;5.95;3.13;;;;;;;3.04;80.99;101030.97;5079767;28;20057;-71
2022/01/07 05:42:24;;;;;;;5.68;3.20;;;;;;;3.06;81.34;101034.41;5083830;28;20052;-70
2022/01/07 05:44:50;;;;;;;5.60;3.55;;;;;;;3.07;81.25;101037.06;5061551;28;20036;-69
2022/01/07 05:47:17;;;;;;;7.97;3.35;;;;;;;3.09;81.30;101035.34;5081244;28;20099;-70
2022/01/07 05:49:44;;;;;;;5.10;3.03;;;;;;;3.12;81.26;101029.25;5087573;28;20672;-67
2022/01/07 05:52:11;;;;;;;6.95;3.35;;;;;;;3.14;81.15;101030.13;5088918;28;20049;-70
2022/01/07 05:54:37;;;;;;;5.78;3.30;;;;;;;3.14;81.20;101032.75;5092475;28;20040;-65
2022/01/07 05:57:06;;;;;;;6.55;3.28;;;;;;;3.15;81.24;101026.66;5088164;28;20110;-67
2022/01/07 05:59:33;;;;;;;8.25;3.78;;;;;;;3.16;81.29;101022.31;5092143;28;20045;-66
2022/01/07 06:02:01;;;;;;;5.95;3.30;;;;;;;3.18;81.37;101010.16;5087713;28;20057;-67
2022/01/07 06:04:28;;;;;;;5.28;3.50;;;;;;;3.20;81.46;101011.06;5084623;28;20040;-66
2022/01/07 06:06:54;;;;;;;7.43;3.72;;;;;;;3.21;81.39;101015.38;5091738;28;20056;-66
2022/01/07 06:09:21;;;;;;;8.38;3.70;;;;;;;3.24;81.49;101018.00;5092282;28;20475;-67
2022/01/07 06:11:48;;;;;;;6.45;3.50;;;;;;;3.24;81.33;101016.28;5092171;28;20487;-68
2022/01/07 06:14:15;;;;;;;5.40;3.58;;;;;;;3.25;81.42;101015.41;5094791;28;20046;-68
2022/01/07 06:16:45;;;;;;;6.07;3.70;;;;;;;3.29;81.47;101011.06;5092744;28;20067;-65
2022/01/07 06:19:12;;;;;;;4.10;3.55;;;;;;;3.30;81.41;101010.22;5096856;28;20037;-66
2022/01/07 06:21:38;;;;;;;6.65;3.90;;;;;;;3.30;81.38;101007.59;5094442;28;20055;-67
2022/01/07 06:24:06;;;;;;;5.97;3.95;;;;;;;3.33;81.51;101011.94;5096734;28;20055;-68
2022/01/07 06:26:33;;;;;;;6.13;3.78;;;;;;;3.32;81.60;101005.84;5095618;28;20052;-66
2022/01/07 06:29:00;;;;;;;6.55;4.28;;;;;;;3.34;81.64;101005.88;5092007;28;20083;-66
2022/01/07 06:31:27;;;;;;;7.63;4.30;;;;;;;3.35;81.68;101005.88;5090709;28;20048;-67
2022/01/07 06:33:54;;;;;;;9.55;4.30;;;;;;;3.36;81.71;101007.59;5085305;28;20169;-67
2022/01/07 06:36:20;;;;;;;5.43;3.95;;;;;;;3.38;81.74;101013.69;5083168;28;20053;-68
2022/01/07 06:38:47;;;;;;;8.32;4.45;;;;;;;3.40;81.75;101014.56;5085213;28;20037;-64
2022/01/07 06:41:14;;;;;;;10.05;3.90;;;;;;;3.43;81.64;101016.31;5082277;28;20615;-66
2022/01/07 06:43:43;;;;;;;7.63;4.40;;;;;;;3.44;81.62;101017.16;5091988;28;20044;-71
2022/01/07 06:46:11;;;;;;;6.90;4.75;;;;;;;3.45;81.75;101024.13;5088312;28;20049;-67
2022/01/07 06:48:39;;;;;;;9.55;4.55;;;;;;;3.46;81.75;101031.94;5084870;28;20076;-71
2022/01/07 06:51:05;;;;;;;6.25;4.43;;;;;;;3.46;81.68;101031.09;5090387;28;20053;-66
2022/01/07 06:53:33;;;;;;;6.75;4.65;;;;;;;3.47;81.82;101028.47;5091267;28;20056;-68
2022/01/07 06:56:03;;;;;;;6.82;3.92;;;;;;;3.48;81.75;101019.78;5094267;28;20123;-71
2022/01/07 06:58:30;;;;;;;8.40;4.50;;;;;;;3.51;81.85;101019.78;5085248;28;20053;-69
2022/01/07 07:00:58;;;;;;;9.45;4.90;;;;;;;3.52;81.82;101031.97;5087513;28;20072;-66
2022/01/07 07:03:25;;;;;;;7.40;4.50;;;;;;;3.54;81.94;101025.03;5078352;28;20049;-68
2022/01/07 07:05:52;;;;;;;12.70;5.38;;;;;;;3.54;81.87;101027.63;5090450;28;20480;-66
2022/01/07 07:08:18;;;;;;;8.32;4.70;;;;;;;3.57;81.83;101030.22;5093462;28;20075;-66
2022/01/07 07:10:45;;;;;;;12.82;5.30;;;;;;;3.60;81.90;101025.88;5095896;28;20173;-73
2022/01/07 07:13:21;;;;;;;8.50;5.15;;;;;;;3.63;81.93;101024.16;5081671;28;20172;-71
2022/01/07 07:16:07;;;;;;;14.63;5.80;;;;;;;3.65;81.97;101027.63;5089626;28;20114;-76
2022/01/07 07:18:55;;;;;;;11.10;5.93;;;;;;;3.67;81.82;101038.94;5096873;28;20152;-70
2022/01/07 07:21:32;;;;;;;12.25;5.95;;;;;;;3.68;81.80;101042.41;5089351;28;20059;-75
2022/01/07 07:24:01;;;;;;;9.75;5.85;;;;;;;3.69;81.82;101050.25;5080994;28;20453;-70
2022/01/07 07:26:29;;;;;;;10.07;5.82;;;;;;;3.70;81.93;101045.91;5081773;28;20075;-70
2022/01/07 07:28:56;;;;;;;11.77;5.65;;;;;;;3.71;81.96;101048.50;5089912;28;20054;-68
2022/01/07 07:31:23;;;;;;;13.90;6.05;;;;;;;3.75;81.97;101038.06;5090360;28;20064;-71
2022/01/07 07:36:27;;;;;;;11.52;5.68;;;;;;;3.77;81.94;101042.41;5080920;28;20063;-68
2022/01/07 07:38:55;;;;;;;9.10;5.47;;;;;;;3.78;81.85;101045.91;5082573;28;20049;-68
2022/01/07 07:41:22;;;;;;;10.80;5.50;;;;;;;3.80;81.94;101044.19;5081895;28;20506;-69
2022/01/07 07:43:52;;;;;;;10.50;5.72;;;;;;;3.83;82.02;101036.34;5088009;28;20151;-65
2022/01/07 07:46:20;;;;;;;10.48;5.45;;;;;;;3.90;82.40;101040.72;5082216;28;20035;-65
2022/01/07 07:48:48;;;;;;;11.38;5.93;;;;;;;3.99;82.28;101048.53;5088699;28;20150;-66
2022/01/07 07:51:15;;;;;;;11.02;5.28;;;;;;;4.03;82.20;101047.66;5084485;28;20065;-69
2022/01/07 07:53:42;;;;;;;8.82;6.20;;;;;;;4.08;82.13;101042.44;5082282;28;20049;-70
2022/01/07 07:56:13;;;;;;;10.80;6.07;;;;;;;4.12;82.07;101049.41;5084540;28;20045;-69
2022/01/07 07:58:42;;;;;;;9.43;5.70;;;;;;;4.16;82.13;101053.75;5082311;28;20055;-68
2022/01/07 08:01:09;;;;;;;9.32;5.65;;;;;;;4.19;81.65;101045.91;5087602;28;20044;-69
2022/01/07 08:03:36;;;;;;;11.52;5.97;;;;;;;4.25;82.26;101038.97;5084549;28;20048;-64
2022/01/07 08:06:04;;;;;;;11.32;5.45;;;;;;;4.32;82.12;101038.06;5082795;28;20053;-63
2022/01/07 08:08:33;;;;;;;8.05;6.20;;;;;;;4.40;82.08;101035.47;5094701;28;20487;-65
2022/01/07 08:11:03;;;;;;;8.65;5.35;;;;;;;4.47;81.76;101034.56;5080248;28;20147;-66
2022/01/07 08:13:30;;;;;;;10.13;5.20;;;;;;;4.49;81.33;101025.84;5089077;28;20052;-64
2022/01/07 08:16:06;;;;;;;9.35;6.07;;;;;;;4.54;81.28;101030.22;5093300;28;20052;-64
2022/01/07 08:18:37;;;;;;;9.57;5.35;;;;;;;4.56;80.97;101018.03;5093292;28;20049;-64
2022/01/07 08:21:10;;;;;;;9.73;5.78;;;;;;;4.61;81.15;101011.03;5084476;28;20040;-64
2022/01/07 08:23:40;;;;;;;11.35;5.90;;;;;;;4.67;80.85;101016.25;5073247;28;20045;-64
2022/01/07 08:26:10;;;;;;;9.70;5.78;;;;;;;4.71;80.82;101017.97;5077350;28;20076;-68
2022/01/07 08:28:47;;;;;;;12.60;5.90;;;;;;;4.75;80.54;101017.09;5091081;28;20047;-68
2022/01/07 08:36:31;;;;;;;8.82;5.50;;;;;;;4.82;80.34;101017.94;5084048;28;20057;-65
2022/01/07 08:39:00;;;;;;;9.98;5.60;;;;;;;4.80;80.07;101010.09;5084377;28;20098;-65
2022/01/07 08:41:30;;;;;;;9.60;5.78;;;;;;;4.78;79.96;101008.38;5076305;28;20057;-65
2022/01/07 08:43:57;;;;;;;9.50;5.95;;;;;;;4.76;80.05;101011.00;5083257;28;20049;-66
2022/01/07 08:46:25;;;;;;;7.75;5.68;;;;;;;4.70;80.13;101018.84;5083335;28;20040;-69
2022/01/07 08:48:52;;;;;;;9.63;5.88;;;;;;;4.66;80.06;101015.38;5074683;28;20076;-66
2022/01/07 08:51:19;;;;;;;12.60;6.18;;;;;;;4.63;80.23;101020.59;5088985;28;20110;-66
2022/01/07 08:53:50;;;;;;;13.00;6.40;;;;;;;4.60;80.25;101020.63;5077078;28;20052;-67
2022/01/07 08:56:17;;;;;;;14.63;6.75;;;;;;;4.62;80.21;101023.22;5078482;28;20147;-65
2022/01/07 08:58:44;;;;;;;10.02;6.25;;;;;;;4.61;80.57;101019.75;5083416;28;20795;-66
2022/01/07 09:01:11;;;;;;;10.95;6.13;;;;;;;4.64;80.62;101026.69;5081668;28;20052;-64
2022/01/07 09:03:41;;;;;;;12.60;5.95;;;;;;;4.65;80.56;101021.47;5082818;28;20088;-65
2022/01/07 09:06:08;;;;;;;13.35;6.38;;;;;;;4.68;80.33;101015.34;5090045;28;20045;-66
2022/01/07 09:08:37;;;;;;;11.85;6.35;;;;;;;4.69;80.50;101016.25;5079384;28;20049;-68
2022/01/07 09:11:04;;;;;;;13.13;6.65;;;;;;;4.71;80.52;101017.13;5081400;28;20052;-65
2022/01/07 09:13:31;;;;;;;11.82;5.95;;;;;;;4.73;80.49;101023.22;5081489;28;20140;-71
2022/01/07 09:15:58;;;;;;;13.90;6.18;;;;;;;4.75;80.37;101032.75;5089209;28;20032;-65
2022/01/07 09:18:26;;;;;;;13.00;6.40;;;;;;;4.76;80.25;101021.44;5077107;28;20115;-66
2022/01/07 09:20:54;;;;;;;10.35;6.05;;;;;;;4.78;80.39;101022.28;5082174;28;21009;-66
2022/01/07 09:23:28;;;;;;;13.50;6.85;;;;;;;4.82;80.33;101023.16;5087164;28;20528;-71
2022/01/07 09:25:55;;;;;;;14.48;6.47;;;;;;;4.85;80.25;101020.53;5074078;28;20808;-71
2022/01/07 09:28:22;;;;;;;14.07;6.47;;;;;;;4.88;80.28;101022.28;5080808;28;20051;-66
2022/01/07 09:30:49;;;;;;;10.98;6.03;;;;;;;4.90;80.37;101024.00;5085213;28;20053;-67
2022/01/07 09:33:16;;;;;;;9.50;6.22;;;;;;;4.92;80.32;101024.00;5088231;28;20052;-72
2022/01/07 09:35:44;;;;;;;11.25;6.82;;;;;;;4.93;80.35;101026.63;5082824;28;20052;-69
2022/01/07 09:38:11;;;;;;;11.45;5.95;;;;;;;4.95;80.20;101030.06;5087460;28;20048;-69
2022/01/07 09:40:38;;;;;;;11.07;5.80;;;;;;;4.98;80.19;101021.38;5089688;28;20044;-69
2022/01/07 09:43:08;;;;;;;8.48;5.60;;;;;;;5.00;80.31;101023.97;5082452;28;20136;-67
2022/01/07 09:45:38;;;;;;;11.30;6.07;;;;;;;5.04;80.12;101036.13;5072242;28;20045;-66
2022/01/07 09:48:06;;;;;;;12.48;6.65;;;;;;;5.04;80.04;101021.34;5086125;28;20051;-66
2022/01/07 09:50:33;;;;;;;11.43;7.68;;;;;;;5.02;80.05;101030.06;5085268;28;20055;-64
2022/01/07 09:53:12;;;;;;;11.45;7.45;;;;;;;5.04;79.88;101021.34;5089472;28;20044;-71
2022/01/07 09:55:40;;;;;;;11.50;7.97;;;;;;;5.06;79.77;101021.31;5090126;28;20263;-67
2022/01/07 09:58:07;;;;;;;23.38;12.90;;;;;;;5.10;79.99;101030.88;5090008;28;20064;-65
2022/01/07 10:00:43;;;;;;;15.48;9.68;;;;;;;5.17;79.62;101018.66;5085644;28;20033;-64
2022/01/07 10:03:18;;;;;;;12.80;8.00;;;;;;;5.22;79.72;101004.69;5090421;28;20645;-72
2022/01/07 10:05:51;;;;;;;12.65;7.72;;;;;;;5.22;79.72;101003.81;5073308;28;20058;-67
2022/01/07 10:08:26;;;;;;;13.00;7.63;;;;;;;5.22;79.87;101001.19;5085293;28;20136;-66
2022/01/07 10:11:18;;;;;;;8.73;6.05;;;;;;;5.26;79.71;101003.78;5085417;28;20120;-69
2022/01/07 10:14:13;;;;;;;9.00;5.63;;;;;;;5.33;79.47;101002.00;5091950;28;20136;-69
2022/01/07 10:17:06;;;;;;;10.57;7.68;;;;;;;5.42;79.33;100983.66;5090014;28;20045;-68
2022/01/07 10:19:39;;;;;;;10.15;5.65;;;;;;;5.57;79.22;100985.28;5070320;28;20056;-67
2022/01/07 10:22:11;;;;;;;14.13;8.07;;;;;;;5.73;78.79;100985.19;5087042;28;20049;-68
2022/01/07 10:24:57;;;;;;;11.15;6.90;;;;;;;5.81;78.76;100985.09;5092954;28;20111;-69
2022/01/07 10:27:34;;;;;;;10.57;6.55;;;;;;;5.85;78.44;100985.06;5093086;28;20054;-68
2022/01/07 10:30:10;;;;;;;8.98;6.05;;;;;;;5.96;77.99;100984.97;5088357;28;20053;-68
2022/01/07 10:32:38;;;;;;;9.70;4.90;;;;;;;5.97;77.72;100980.59;5093112;28;20063;-69
2022/01/07 10:35:17;;;;;;;10.82;5.10;;;;;;;5.94;77.67;100980.66;5092932;28;20051;-69
2022/01/07 10:38:04;;;;;;;9.10;5.07;;;;;;;5.98;77.57;100974.50;5092784;28;20131;-68
2022/01/07 10:40:39;;;;;;;7.90;4.80;;;;;;;6.02;77.83;100976.25;5077788;28;20045;-71
2022/01/07 10:43:17;;;;;;;8.27;4.93;;;;;;;6.06;77.84;100970.09;5071103;28;20144;-67
2022/01/07 10:45:59;;;;;;;8.18;4.38;;;;;;;6.07;77.62;100971.81;5072132;28;20079;-67
2022/01/07 10:48:53;;;;;;;7.85;4.43;;;;;;;6.09;77.30;100963.97;5072354;28;20134;-69
2022/01/07 10:51:27;;;;;;;24.00;13.93;;;;;;;6.09;77.55;100964.81;5092415;28;20049;-71
2022/01/07 10:54:17;;;;;;;28.33;19.20;;;;;;;6.15;77.23;100958.66;5089584;28;20072;-72
2022/01/07 10:56:51;;;;;;;26.33;17.73;;;;;;;6.16;77.26;100955.16;5074033;28;20151;-68
2022/01/07 10:59:20;;;;;;;10.75;5.63;;;;;;;6.22;77.15;100958.59;5076111;28;20107;-67
2022/01/07 11:01:50;;;;;;;9.60;4.40;;;;;;;6.30;77.00;100958.53;5075679;28;20388;-73
2022/01/07 11:04:21;;;;;;;9.25;4.43;;;;;;;6.36;76.93;100953.22;5086801;28;20409;-66
2022/01/07 11:06:51;;;;;;;8.43;4.90;;;;;;;6.40;76.75;100953.19;5077985;28;20053;-68
2022/01/07 11:09:20;;;;;;;6.22;3.85;;;;;;;6.43;76.13;100937.41;5083838;28;20088;-69
2022/01/07 11:11:57;;;;;;;6.50;4.00;;;;;;;6.60;75.80;100938.09;5096495;28;20037;-69
2022/01/07 11:14:30;;;;;;;8.52;3.83;;;;;;;6.80;75.43;100937.84;5082338;28;20080;-73
2022/01/07 11:17:04;;;;;;;9.18;3.33;;;;;;;6.79;73.62;100938.72;5094129;28;20067;-72
2022/01/07 11:19:37;;;;;;;12.68;4.20;;;;;;;6.81;74.51;100936.94;5075692;28;20248;-68
2022/01/07 11:22:11;;;;;;;9.77;3.90;;;;;;;6.85;74.71;100943.00;5092544;28;20048;-70
2022/01/07 11:25:08;;;;;;;6.82;3.20;;;;;;;6.81;74.93;100941.34;5093135;28;20075;-66
2022/01/07 11:27:57;;;;;;;10.02;3.97;;;;;;;6.79;74.98;100938.72;5090419;28;20056;-68
2022/01/07 11:30:29;;;;;;;12.07;3.45;;;;;;;6.76;75.17;100941.41;5091780;28;20044;-70
2022/01/07 11:32:56;;;;;;;9.20;3.40;;;;;;;6.76;75.39;100941.41;5086474;28;20111;-69
2022/01/07 11:35:23;;;;;;;7.65;3.72;;;;;;;6.77;74.78;100947.50;5090626;28;20055;-71
2022/01/07 11:37:51;;;;;;;8.90;3.47;;;;;;;6.75;74.60;100938.78;5081486;28;20087;-68
2022/01/07 11:40:32;;;;;;;8.05;3.30;;;;;;;6.75;75.06;100947.53;5093970;28;20044;-68
2022/01/07 11:43:20;;;;;;;7.07;3.10;;;;;;;6.79;74.47;100943.97;5088804;28;20092;-67
2022/01/07 11:45:47;;;;;;;10.93;3.28;;;;;;;6.83;74.48;100942.16;5074595;28;20049;-67
2022/01/07 11:48:15;;;;;;;7.60;3.03;;;;;;;6.89;74.01;100946.47;5091706;28;20044;-66